createdAt,value
2018-07-19T00:00:03.444Z,99.99
2018-07-19T00:01:04.135Z,99.99
2018-07-19T00:02:03.694Z,99.99
2018-07-19T00:03:03.891Z,99.99
2018-07-19T00:04:04.212Z,99.99
2018-07-19T00:05:03.653Z,99.99
2018-07-19T00:06:03.375Z,99.99
2018-07-19T00:07:03.633Z,99.99
2018-07-19T00:08:03.721Z,99.99
2018-07-19T00:09:03.605Z,99.99
2018-07-19T00:10:03.331Z,99.99
2018-07-19T00:11:03.317Z,99.99
2018-07-19T00:12:03.307Z,99.99
2018-07-19T00:13:03.567Z,99.99
2018-07-19T00:14:04.124Z,99.99
2018-07-19T00:15:03.542Z,99.99
2018-07-19T00:16:03.267Z,99.99
2018-07-19T00:17:03.246Z,99.99
2018-07-19T00:18:04.062Z,99.99
2018-07-19T00:19:03.298Z,99.99
2018-07-19T00:20:03.487Z,99.99
2018-07-19T00:21:03.481Z,99.99
2018-07-19T00:22:03.187Z,99.99
2018-07-19T00:23:03.453Z,99.99
2018-07-19T00:24:03.170Z,99.99
2018-07-19T00:25:03.153Z,99.99
2018-07-19T00:26:03.423Z,99.99
2018-07-19T00:27:03.402Z,99.99
2018-07-19T00:28:03.408Z,99.99
2018-07-19T00:29:03.109Z,99.99
2018-07-19T00:30:03.370Z,99.99
2018-07-19T00:31:03.090Z,99.99
2018-07-19T00:32:03.353Z,99.99
2018-07-19T00:33:03.808Z,99.99
2018-07-19T00:34:03.451Z,99.99
2018-07-19T00:35:03.336Z,99.99
2018-07-19T00:36:03.650Z,99.99
2018-07-19T00:37:03.287Z,99.99
2018-07-19T00:38:03.279Z,99.99
2018-07-19T00:39:03.275Z,99.99
2018-07-19T00:40:03.612Z,99.99
2018-07-19T00:41:03.246Z,99.99
2018-07-19T00:42:03.231Z,99.99
2018-07-19T00:43:03.212Z,99.99
2018-07-19T00:44:02.937Z,99.99
2018-07-19T00:45:02.918Z,99.99
2018-07-19T00:46:02.907Z,99.99
2018-07-19T00:47:03.814Z,99.99
2018-07-19T00:48:02.888Z,99.99
2018-07-19T00:49:03.149Z,99.99
2018-07-19T00:50:03.134Z,99.99
2018-07-19T00:51:03.710Z,99.99
2018-07-19T00:52:02.837Z,99.99
2018-07-19T00:53:03.107Z,99.99
2018-07-19T00:54:03.079Z,99.99
2018-07-19T00:55:02.801Z,99.99
2018-07-19T00:56:02.785Z,99.99
2018-07-19T00:57:03.053Z,99.99
2018-07-19T00:58:03.040Z,99.99
2018-07-19T00:59:02.755Z,99.99
2018-07-19T01:00:03.038Z,99.99
2018-07-19T01:01:02.726Z,99.99
2018-07-19T01:02:02.717Z,99.99
2018-07-19T01:03:02.703Z,99.99
2018-07-19T01:04:02.960Z,99.99
2018-07-19T01:05:02.951Z,99.99
2018-07-19T01:06:02.666Z,99.99
2018-07-19T01:07:02.929Z,99.99
2018-07-19T01:08:02.649Z,99.99
2018-07-19T01:09:02.903Z,99.99
2018-07-19T01:10:03.231Z,99.99
2018-07-19T01:11:02.606Z,99.99
2018-07-19T01:12:02.871Z,99.99
2018-07-19T01:13:02.579Z,99.99
2018-07-19T01:14:02.572Z,99.99
2018-07-19T01:15:02.835Z,99.63
2018-07-19T01:16:02.543Z,99.82
2018-07-19T01:17:02.807Z,99.99
2018-07-19T01:18:02.788Z,99.99
2018-07-19T01:19:02.799Z,99.99
2018-07-19T01:20:03.073Z,99.99
2018-07-19T01:21:02.759Z,99.99
2018-07-19T01:22:02.466Z,99.99
2018-07-19T01:23:02.930Z,99.99
2018-07-19T01:24:02.448Z,99.99
2018-07-19T01:25:02.436Z,99.99
2018-07-19T01:26:03.221Z,99.43
2018-07-19T01:27:02.687Z,99.43
2018-07-19T01:28:02.674Z,99.82
2018-07-19T01:29:03.188Z,99.82
2018-07-19T01:30:02.649Z,99.99
2018-07-19T01:31:02.358Z,99.99
2018-07-19T01:32:02.346Z,99.91
2018-07-19T01:33:02.611Z,99.99
2018-07-19T01:34:03.130Z,99.99
2018-07-19T01:35:02.580Z,99.99
2018-07-19T01:36:02.570Z,99.99
2018-07-19T01:37:02.285Z,99.99
2018-07-19T01:38:02.308Z,99.99
2018-07-19T01:39:02.528Z,99.99
2018-07-19T01:40:02.526Z,99.99
2018-07-19T01:41:02.234Z,99.99
2018-07-19T01:42:02.221Z,99.99
2018-07-19T01:43:02.491Z,99.99
2018-07-19T01:44:02.486Z,99.99
2018-07-19T01:45:02.188Z,99.99
2018-07-19T01:46:02.170Z,99.99
2018-07-19T01:47:02.442Z,99.99
2018-07-19T01:48:02.145Z,99.91
2018-07-19T01:49:02.425Z,99.99
2018-07-19T01:50:02.399Z,99.91
2018-07-19T01:51:02.476Z,99.99
2018-07-19T01:52:02.104Z,99.96
2018-07-19T01:53:02.359Z,99.99
2018-07-19T01:54:02.076Z,99.67
2018-07-19T01:55:02.332Z,99.87
2018-07-19T01:56:02.047Z,99.99
2018-07-19T01:57:02.857Z,99.77
2018-07-19T01:58:02.020Z,99.96
2018-07-19T01:59:02.005Z,99.99
2018-07-19T02:00:02.683Z,99.99
2018-07-19T02:01:02.256Z,99.99
2018-07-19T02:02:02.246Z,99.99
2018-07-19T02:03:03.035Z,99.99
2018-07-19T02:04:02.228Z,99.67
2018-07-19T02:05:01.939Z,99.87
2018-07-19T02:06:01.924Z,99.67
2018-07-19T02:07:02.748Z,99.96
2018-07-19T02:08:02.172Z,99.99
2018-07-19T02:09:02.161Z,99.99
2018-07-19T02:10:02.775Z,99.99
2018-07-19T02:11:02.140Z,99.99
2018-07-19T02:12:02.124Z,99.99
2018-07-19T02:13:01.831Z,99.99
2018-07-19T02:14:02.103Z,99.99
2018-07-19T02:15:02.094Z,99.99
2018-07-19T02:16:02.605Z,99.99
2018-07-19T02:17:01.783Z,99.99
2018-07-19T02:18:01.770Z,99.58
2018-07-19T02:19:02.033Z,99.77
2018-07-19T02:20:01.745Z,99.96
2018-07-19T02:21:01.738Z,99.81
2018-07-19T02:22:01.723Z,99.48
2018-07-19T02:23:01.706Z,98.81
2018-07-19T02:24:01.974Z,99.38
2018-07-19T02:25:01.958Z,99
2018-07-19T02:26:01.669Z,99
2018-07-19T02:27:01.939Z,99.48
2018-07-19T02:28:01.918Z,99.48
2018-07-19T02:29:02.583Z,99.72
2018-07-19T02:30:01.620Z,98.81
2018-07-19T02:31:01.886Z,98.57
2018-07-19T02:32:02.355Z,98.52
2018-07-19T02:33:01.847Z,98.86
2018-07-19T02:34:01.569Z,99.33
2018-07-19T02:35:02.444Z,99.72
2018-07-19T02:36:01.545Z,99.29
2018-07-19T02:37:01.806Z,99.43
2018-07-19T02:38:02.395Z,99.43
2018-07-19T02:39:01.786Z,99.62
2018-07-19T02:40:01.767Z,99.62
2018-07-19T02:41:01.483Z,99.62
2018-07-19T02:42:02.204Z,99.43
2018-07-19T02:43:01.722Z,99.52
2018-07-19T02:44:01.438Z,99.62
2018-07-19T02:45:02.288Z,99.81
2018-07-19T02:46:01.416Z,99.72
2018-07-19T02:47:01.689Z,99.72
2018-07-19T02:48:02.130Z,99.52
2018-07-19T02:49:01.655Z,99.52
2018-07-19T02:50:01.632Z,99.52
2018-07-19T02:51:01.889Z,99.81
2018-07-19T02:52:01.344Z,99.62
2018-07-19T02:53:01.325Z,99.99
2018-07-19T02:54:01.310Z,99.99
2018-07-19T02:55:01.301Z,99.99
2018-07-19T02:56:01.553Z,99.99
2018-07-19T02:57:01.541Z,99.81
2018-07-19T02:58:01.965Z,99.99
2018-07-19T02:59:01.256Z,99.52
2018-07-19T03:00:01.510Z,99.99
2018-07-19T03:01:01.219Z,99.99
2018-07-19T03:02:01.496Z,99.99
2018-07-19T03:03:01.468Z,99.99
2018-07-19T03:04:01.461Z,99.52
2018-07-19T03:05:01.166Z,99.99
2018-07-19T03:06:01.158Z,99.52
2018-07-19T03:07:01.432Z,99.52
2018-07-19T03:08:02.056Z,99.24
2018-07-19T03:09:01.383Z,99.52
2018-07-19T03:10:01.377Z,99.62
2018-07-19T03:11:02.047Z,99.81
2018-07-19T03:12:01.077Z,99.72
2018-07-19T03:13:01.340Z,99.81
2018-07-19T03:14:01.334Z,99.15
2018-07-19T03:15:01.041Z,99.24
2018-07-19T03:16:01.299Z,99.15
2018-07-19T03:17:01.016Z,99.72
2018-07-19T03:18:01.789Z,99.15
2018-07-19T03:19:00.988Z,99.43
2018-07-19T03:20:01.242Z,99.05
2018-07-19T03:21:00.960Z,98.57
2018-07-19T03:22:01.229Z,98.38
2018-07-19T03:23:01.200Z,98.57
2018-07-19T03:24:00.921Z,98.57
2018-07-19T03:25:00.910Z,98.52
2018-07-19T03:26:00.895Z,98.24
2018-07-19T03:27:00.883Z,98.14
2018-07-19T03:28:01.133Z,97.66
2018-07-19T03:29:01.128Z,97.85
2018-07-19T03:30:00.842Z,97.61
2018-07-19T03:31:01.707Z,97.47
2018-07-19T03:32:01.099Z,96.47
2018-07-19T03:33:00.803Z,97.42
2018-07-19T03:34:00.789Z,96.94
2018-07-19T03:35:01.050Z,97.33
2018-07-19T03:36:00.767Z,97.42
2018-07-19T03:37:00.749Z,97.42
2018-07-19T03:38:01.014Z,97.9
2018-07-19T03:39:00.996Z,97.61
2018-07-19T03:40:01.493Z,97.42
2018-07-19T03:41:00.984Z,97.23
2018-07-19T03:42:00.684Z,97.23
2018-07-19T03:43:01.516Z,96.94
2018-07-19T03:44:00.660Z,96.84
2018-07-19T03:45:00.922Z,96.7
2018-07-19T03:46:01.455Z,96.75
2018-07-19T03:47:00.619Z,97.04
2018-07-19T03:48:00.874Z,96.84
2018-07-19T03:49:01.471Z,96.7
2018-07-19T03:50:00.853Z,96.7
2018-07-19T03:51:00.567Z,96.7
2018-07-19T03:52:00.889Z,96.61
2018-07-19T03:53:01.205Z,96.08
2018-07-19T03:54:00.798Z,95.41
2018-07-19T03:55:00.513Z,95.75
2018-07-19T03:56:01.354Z,95.46
2018-07-19T03:57:00.760Z,94.7
2018-07-19T03:58:00.748Z,95.51
2018-07-19T03:59:01.099Z,95.36
2018-07-19T04:00:00.718Z,95.46
2018-07-19T04:01:00.707Z,95.27
2018-07-19T04:02:01.560Z,95.36
2018-07-19T04:03:00.882Z,95.75
2018-07-19T04:04:00.668Z,96.42
2018-07-19T04:05:01.211Z,96.22
2018-07-19T04:06:00.366Z,96.89
2018-07-19T04:07:00.358Z,96.61
2018-07-19T04:08:00.615Z,96.61
2018-07-19T04:09:00.601Z,96.84
2018-07-19T04:10:00.587Z,96.66
2018-07-19T04:11:00.307Z,96.84
2018-07-19T04:12:00.949Z,96.66
2018-07-19T04:13:00.606Z,96.03
2018-07-19T04:14:00.538Z,96.42
2018-07-19T04:15:00.246Z,96.27
2018-07-19T04:16:00.514Z,96.56
2018-07-19T04:17:00.561Z,96.84
2018-07-19T04:18:00.498Z,97.33
2018-07-19T04:19:00.195Z,97.23
2018-07-19T04:20:00.186Z,97.13
2018-07-19T04:21:00.440Z,97.23
2018-07-19T04:22:00.157Z,97.23
2018-07-19T04:23:00.421Z,96.56
2018-07-19T04:24:00.398Z,96.66
2018-07-19T04:25:00.468Z,96.56
2018-07-19T04:26:00.911Z,96.94
2018-07-19T04:27:00.097Z,96.75
2018-07-19T04:28:00.396Z,96.37
2018-07-19T04:29:00.062Z,96.18
2018-07-19T04:30:00.325Z,97.04
2018-07-19T04:31:00.310Z,96.37
2018-07-19T04:32:00.023Z,96.66
2018-07-19T04:33:00.009Z,95.98
2018-07-19T04:34:00.278Z,96.18
2018-07-19T04:35:00.256Z,95.98
2018-07-19T04:35:59.971Z,96.37
2018-07-19T04:37:00.233Z,95.12
2018-07-19T04:38:00.216Z,95.98
2018-07-19T04:38:59.927Z,96.47
2018-07-19T04:39:59.919Z,96.08
2018-07-19T04:40:59.905Z,96.08
2018-07-19T04:42:00.162Z,96.47
2018-07-19T04:42:59.887Z,95.61
2018-07-19T04:44:00.145Z,95.22
2018-07-19T04:44:59.851Z,95.31
2018-07-19T04:46:00.120Z,95.12
2018-07-19T04:47:00.575Z,95.51
2018-07-19T04:47:59.813Z,95.41
2018-07-19T04:49:00.079Z,95.12
2018-07-19T04:50:00.531Z,96.37
2018-07-19T04:50:59.773Z,95.12
2018-07-19T04:52:00.045Z,95.98
2018-07-19T04:53:00.593Z,96.22
2018-07-19T04:54:00.014Z,96.18
2018-07-19T04:55:00.007Z,97.23
2018-07-19T04:55:59.991Z,97.47
2018-07-19T04:56:59.692Z,97.47
2018-07-19T04:57:59.955Z,97.13
2018-07-19T04:58:59.948Z,97.56
2018-07-19T05:00:00.468Z,97.09
2018-07-19T05:00:59.656Z,96.8
2018-07-19T05:01:59.988Z,96.22
2018-07-19T05:02:59.621Z,96.22
2018-07-19T05:03:59.606Z,96.42
2018-07-19T05:04:59.655Z,96.22
2018-07-19T05:05:59.852Z,96.8
2018-07-19T05:07:00.229Z,97.38
2018-07-19T05:07:59.835Z,96.61
2018-07-19T05:08:59.546Z,95.17
2018-07-19T05:10:00.455Z,95.17
2018-07-19T05:10:59.804Z,94.6
2018-07-19T05:11:59.788Z,94.5
2018-07-19T05:12:59.777Z,95.27
2018-07-19T05:14:00.243Z,96.89
2018-07-19T05:14:59.738Z,96.27
2018-07-19T05:15:59.740Z,96.32
2018-07-19T05:17:00.355Z,96.37
2018-07-19T05:17:59.701Z,96.27
2018-07-19T05:18:59.693Z,96.47
2018-07-19T05:19:59.402Z,97.33
2018-07-19T05:21:00.096Z,97.33
2018-07-19T05:21:59.381Z,98.28
2018-07-19T05:22:59.642Z,98.47
2018-07-19T05:23:59.625Z,98.47
2018-07-19T05:25:00.265Z,98.28
2018-07-19T05:25:59.610Z,98.76
2018-07-19T05:26:59.605Z,99.24
2018-07-19T05:28:00.166Z,99.05
2018-07-19T05:28:59.564Z,98.38
2018-07-19T05:29:59.572Z,98.47
2018-07-19T05:30:59.272Z,98.1
2018-07-19T05:31:59.547Z,98.28
2018-07-19T05:32:59.241Z,96.61
2018-07-19T05:33:59.508Z,97.47
2018-07-19T05:35:00.043Z,97.76
2018-07-19T05:35:59.483Z,98.05
2018-07-19T05:36:59.200Z,95.75
2018-07-19T05:37:59.178Z,96.7
2018-07-19T05:38:59.465Z,96.61
2018-07-19T05:39:59.155Z,97.09
2018-07-19T05:40:59.414Z,96.99
2018-07-19T05:41:59.180Z,96.13
2018-07-19T05:42:59.123Z,96.13
2018-07-19T05:43:59.391Z,96.7
2018-07-19T05:44:59.378Z,96.89
2018-07-19T05:45:59.898Z,97.42
2018-07-19T05:46:59.072Z,97.14
2018-07-19T05:47:59.328Z,97.95
2018-07-19T05:48:59.328Z,98
2018-07-19T05:49:59.915Z,98.1
2018-07-19T05:50:59.298Z,97.71
2018-07-19T05:51:59.295Z,97.71
2018-07-19T05:52:59.675Z,98.48
2018-07-19T05:53:59.263Z,98.48
2018-07-19T05:54:59.249Z,98.67
2018-07-19T05:55:58.966Z,98.57
2018-07-19T05:56:59.236Z,99.24
2018-07-19T05:57:59.220Z,98.96
2018-07-19T05:58:59.217Z,99.58
2018-07-19T05:59:58.915Z,99.99
2018-07-19T06:00:59.182Z,99.99
2018-07-19T06:01:58.896Z,99.99
2018-07-19T06:02:59.896Z,99.99
2018-07-19T06:03:59.141Z,99.99
2018-07-19T06:04:59.147Z,99.99
2018-07-19T06:05:58.853Z,99.99
2018-07-19T06:06:59.113Z,99.99
2018-07-19T06:07:59.103Z,99.99
2018-07-19T06:08:58.815Z,99.99
2018-07-19T06:09:59.085Z,99.99
2018-07-19T06:10:58.794Z,99.99
2018-07-19T06:11:59.058Z,99.99
2018-07-19T06:12:58.771Z,99.99
2018-07-19T06:13:59.037Z,99.99
2018-07-19T06:14:59.020Z,99.99
2018-07-19T06:15:59.051Z,99.99
2018-07-19T06:16:58.726Z,99.99
2018-07-19T06:17:58.713Z,99.99
2018-07-19T06:18:58.705Z,99.99
2018-07-19T06:19:58.692Z,99.99
2018-07-19T06:20:59.436Z,99.99
2018-07-19T06:21:58.675Z,99.99
2018-07-19T06:22:58.942Z,99.99
2018-07-19T06:23:58.646Z,99.99
2018-07-19T06:24:58.930Z,99.99
2018-07-19T06:25:58.627Z,99.99
2018-07-19T06:26:58.898Z,99.99
2018-07-19T06:27:58.897Z,99.99
2018-07-19T06:28:58.868Z,99.99
2018-07-19T06:29:58.584Z,99.99
2018-07-19T06:30:58.846Z,99.99
2018-07-19T06:31:59.503Z,99.99
2018-07-19T06:32:58.843Z,99.99
2018-07-19T06:33:58.534Z,99.99
2018-07-19T06:34:59.190Z,99.99
2018-07-19T06:35:58.794Z,99.99
2018-07-19T06:36:58.786Z,99.99
2018-07-19T06:37:59.072Z,99.99
2018-07-19T06:38:58.760Z,99.99
2018-07-19T06:39:58.775Z,99.99
2018-07-19T06:40:58.461Z,99.99
2018-07-19T06:41:58.451Z,99.99
2018-07-19T06:42:58.725Z,99.99
2018-07-19T06:43:58.432Z,99.99
2018-07-19T06:44:58.422Z,99.99
2018-07-19T06:45:58.408Z,99.99
2018-07-19T06:46:59.351Z,99.99
2018-07-19T06:47:58.668Z,99.99
2018-07-19T06:48:58.390Z,99.99
2018-07-19T06:49:58.373Z,99.99
2018-07-19T06:50:58.360Z,99.99
2018-07-19T06:51:58.616Z,99.99
2018-07-19T06:52:58.632Z,99.99
2018-07-19T06:53:59.066Z,99.99
2018-07-19T06:54:58.322Z,99.99
2018-07-19T06:55:58.314Z,99.99
2018-07-19T06:56:59.232Z,95.4
2018-07-19T06:57:58.292Z,94.25
2018-07-19T06:58:58.556Z,95.84
2018-07-19T06:59:59.061Z,97.86
2018-07-19T07:00:58.263Z,87.94
2018-07-19T07:01:58.546Z,81.91
2018-07-19T07:02:58.979Z,79.85
2018-07-19T07:03:58.239Z,79.11
2018-07-19T07:04:58.228Z,78.15
2018-07-19T07:05:58.215Z,78.15
2018-07-19T07:06:58.487Z,78.15
2018-07-19T07:07:58.200Z,77.96
2018-07-19T07:08:58.665Z,76.9
2018-07-19T07:09:58.980Z,76.61
2018-07-19T07:10:58.450Z,78.06
2018-07-19T07:11:58.437Z,76.13
2018-07-19T07:12:58.151Z,75.59
2018-07-19T07:13:58.144Z,75.65
2018-07-19T07:14:58.182Z,75.88
2018-07-19T07:15:58.816Z,77.61
2018-07-19T07:16:58.125Z,77.61
2018-07-19T07:17:58.121Z,76.75
2018-07-19T07:18:58.900Z,74.33
2018-07-19T07:19:58.369Z,75.82
2018-07-19T07:20:58.365Z,74.76
2018-07-19T07:21:58.860Z,73.79
2018-07-19T07:22:58.359Z,73.79
2018-07-19T07:23:58.335Z,72.09
2018-07-19T07:24:58.742Z,71.61
2018-07-19T07:25:58.329Z,72.28
2018-07-19T07:26:58.311Z,70.06
2018-07-19T07:27:58.837Z,68.62
2018-07-19T07:28:58.303Z,68.52
2018-07-19T07:29:58.292Z,66.97
2018-07-19T07:30:58.020Z,67.65
2018-07-19T07:31:58.014Z,67.94
2018-07-19T07:32:57.989Z,69.04
2018-07-19T07:33:57.988Z,68.81
2018-07-19T07:34:57.981Z,69.42
2018-07-19T07:35:57.972Z,67.11
2018-07-19T07:36:58.260Z,67.49
2018-07-19T07:37:58.258Z,66.46
2018-07-19T07:38:57.954Z,63.79
2018-07-19T07:39:57.945Z,63.34
2018-07-19T07:40:58.225Z,62.08
2018-07-19T07:41:58.216Z,63.82
2018-07-19T07:43:57.921Z,63.92
2018-07-19T07:44:58.204Z,64.11
2018-07-19T07:45:58.185Z,64.82
2018-07-19T07:46:57.898Z,63.95
2018-07-19T07:47:58.177Z,63.56
2018-07-19T07:48:58.160Z,62.21
2018-07-19T07:49:58.591Z,60.85
2018-07-19T07:50:58.156Z,58.91
2018-07-19T07:51:58.144Z,58.72
2018-07-19T07:52:58.652Z,58.78
2018-07-19T07:53:58.141Z,59.84
2018-07-19T07:54:58.126Z,58.98
2018-07-19T07:55:58.115Z,58.78
2018-07-19T07:56:57.848Z,57.03
2018-07-19T07:57:57.834Z,55.33
2018-07-19T07:58:57.831Z,54.42
2018-07-19T07:59:57.824Z,53.57
2018-07-19T08:00:58.095Z,53.69
2018-07-19T08:01:58.108Z,53.42
2018-07-19T08:02:58.303Z,50.65
2018-07-19T08:03:57.817Z,48.24
2018-07-19T08:04:57.803Z,48.05
2018-07-19T08:05:57.805Z,47.85
2018-07-19T08:06:58.602Z,49.71
2018-07-19T08:07:57.796Z,48.58
2018-07-19T08:08:58.196Z,49.56
2018-07-19T08:09:58.389Z,49.12
2018-07-19T08:10:58.055Z,49.9
2018-07-19T08:11:58.058Z,50.58
2018-07-19T08:12:58.649Z,51.53
2018-07-19T08:13:57.786Z,51.33
2018-07-19T08:14:57.774Z,50.43
2018-07-19T08:15:58.190Z,51.48
2018-07-19T08:16:57.764Z,53.03
2018-07-19T08:17:58.040Z,51.82
2018-07-19T08:18:57.760Z,51.09
2018-07-19T08:19:58.023Z,48.71
2018-07-19T08:20:58.032Z,46.7
2018-07-19T08:21:58.567Z,46.92
2018-07-19T08:22:57.746Z,46.92
2018-07-19T08:23:57.745Z,46.88
2018-07-19T08:24:58.540Z,44.96
2018-07-19T08:25:58.011Z,46.08
2018-07-19T08:26:58.007Z,44.91
2018-07-19T08:27:58.451Z,44.62
2018-07-19T08:28:58.060Z,44.34
2018-07-19T08:29:57.733Z,44.32
2018-07-19T08:30:57.737Z,44.59
2018-07-19T08:31:57.732Z,45.45
2018-07-19T08:32:57.734Z,45.7
2018-07-19T08:33:58.646Z,46.17
2018-07-19T08:34:57.733Z,46.83
2018-07-19T08:35:58.229Z,46.61
2018-07-19T08:36:57.722Z,48.66
2018-07-19T08:37:58.376Z,48.71
2018-07-19T08:38:58.017Z,48.71
2018-07-19T08:39:57.995Z,48.24
2018-07-19T08:40:57.714Z,48.32
2018-07-19T08:41:57.787Z,48.19
2018-07-19T08:42:57.989Z,48.36
2018-07-19T08:43:58.468Z,49.15
2018-07-19T08:44:57.706Z,49.73
2018-07-19T08:45:57.970Z,49.71
2018-07-19T08:46:57.702Z,49.71
2018-07-19T08:47:57.975Z,49.99
2018-07-19T08:48:57.974Z,51.53
2018-07-19T08:49:57.697Z,51.62
2018-07-19T08:50:57.692Z,51.92
2018-07-19T08:51:57.690Z,49.87
2018-07-19T08:52:58.515Z,50.26
2018-07-19T08:53:57.679Z,51.4
2018-07-19T08:54:57.955Z,52.57
2018-07-19T08:55:57.677Z,52.76
2018-07-19T08:56:57.669Z,52.19
2018-07-19T08:57:57.679Z,50.53
2018-07-19T08:58:57.938Z,51.4
2018-07-19T08:59:58.314Z,52.57
2018-07-19T09:00:57.660Z,51.5
2018-07-19T09:01:57.931Z,52.47
2018-07-19T09:02:58.519Z,52.76
2018-07-19T09:03:57.926Z,53.25
2018-07-19T09:04:57.920Z,52.86
2018-07-19T09:05:58.254Z,51.79
2018-07-19T09:06:57.911Z,51.6
2018-07-19T09:07:57.904Z,52.28
2018-07-19T09:08:58.390Z,52.57
2018-07-19T09:09:57.628Z,52.47
2018-07-19T09:10:57.914Z,52.79
2018-07-19T09:11:57.945Z,52.4
2018-07-19T09:12:58.367Z,50.48
2018-07-19T09:13:57.936Z,50.68
2018-07-19T09:14:57.612Z,51.75
2018-07-19T09:15:57.608Z,52.14
2018-07-19T09:16:57.881Z,52.72
2018-07-19T09:17:57.868Z,51.75
2018-07-19T09:18:57.599Z,51.07
2018-07-19T09:19:58.366Z,51.36
2018-07-19T09:20:57.592Z,51.94
2018-07-19T09:21:57.869Z,51.17
2018-07-19T09:22:58.286Z,52.23
2018-07-19T09:23:57.873Z,51.97
2018-07-19T09:24:57.578Z,51.39
2018-07-19T09:25:57.872Z,51.09
2018-07-19T09:26:58.433Z,50.53
2018-07-19T09:27:57.858Z,50.34
2018-07-19T09:28:57.852Z,49.95
2018-07-19T09:29:57.564Z,49.76
2018-07-19T09:30:57.846Z,49.95
2018-07-19T09:31:57.563Z,50.04
2018-07-19T09:32:57.844Z,50.04
2018-07-19T09:33:58.287Z,50.53
2018-07-19T09:34:57.834Z,51.51
2018-07-19T09:35:57.827Z,51.61
2018-07-19T09:36:58.281Z,51.58
2018-07-19T09:37:57.827Z,51.87
2018-07-19T09:38:57.818Z,51.48
2018-07-19T09:39:57.546Z,52.26
2018-07-19T09:40:57.539Z,52.26
2018-07-19T09:41:57.925Z,52.26
2018-07-19T09:42:57.539Z,52.55
2018-07-19T09:43:58.231Z,52.53
2018-07-19T09:44:57.532Z,52.33
2018-07-19T09:45:57.819Z,52.33
2018-07-19T09:46:58.186Z,53.38
2018-07-19T09:47:57.797Z,54.05
2018-07-19T09:48:57.547Z,53.77
2018-07-19T09:49:57.797Z,54.05
2018-07-19T09:50:57.510Z,54.35
2018-07-19T09:51:57.505Z,53.96
2018-07-19T09:52:57.502Z,53.99
2018-07-19T09:53:58.398Z,52.04
2018-07-19T09:54:57.496Z,52.92
2018-07-19T09:55:57.855Z,53.23
2018-07-19T09:56:58.356Z,53.81
2018-07-19T09:57:57.486Z,52.26
2018-07-19T09:58:57.485Z,52.43
2018-07-19T09:59:57.477Z,53.3
2018-07-19T10:00:58.360Z,53.96
2018-07-19T10:01:57.897Z,53.86
2018-07-19T10:02:57.469Z,54.64
2018-07-19T10:03:57.460Z,53.86
2018-07-19T10:04:57.728Z,53.08
2018-07-19T10:05:57.733Z,53.67
2018-07-19T10:06:57.727Z,53.99
2018-07-19T10:07:58.226Z,53.96
2018-07-19T10:08:57.734Z,54.74
2018-07-19T10:09:57.456Z,54.64
2018-07-19T10:10:57.434Z,54.35
2018-07-19T10:11:57.813Z,54.52
2018-07-19T10:12:57.425Z,55.29
2018-07-19T10:13:57.424Z,54.52
2018-07-19T10:14:58.292Z,54.03
2018-07-19T10:15:57.413Z,54.9
2018-07-19T10:16:57.692Z,53.81
2018-07-19T10:17:57.399Z,54.52
2018-07-19T10:18:58.174Z,54.49
2018-07-19T10:19:57.673Z,54.29
2018-07-19T10:20:57.677Z,54.68
2018-07-19T10:21:57.389Z,54.2
2018-07-19T10:22:57.672Z,55.58
2018-07-19T10:23:57.656Z,55.49
2018-07-19T10:24:57.652Z,52.09
2018-07-19T10:25:57.825Z,51.62
2018-07-19T10:26:57.369Z,53.18
2018-07-19T10:27:57.363Z,53.18
2018-07-19T10:28:57.634Z,54.64
2018-07-19T10:29:57.356Z,53.18
2018-07-19T10:30:57.621Z,52.59
2018-07-19T10:31:57.723Z,52.4
2018-07-19T10:32:57.342Z,53.79
2018-07-19T10:33:57.610Z,52.82
2018-07-19T10:34:57.342Z,52.16
2018-07-19T10:35:57.619Z,51.41
2018-07-19T10:36:58.037Z,51.36
2018-07-19T10:37:57.334Z,50.9
2018-07-19T10:38:57.625Z,50.21
2018-07-19T10:39:57.342Z,50.12
2018-07-19T10:40:58.090Z,47.41
2018-07-19T10:41:57.606Z,48.05
2018-07-19T10:42:57.608Z,45.94
2018-07-19T10:43:57.605Z,46.36
2018-07-19T10:44:57.615Z,46.11
2018-07-19T10:45:57.642Z,43.99
2018-07-19T10:46:57.349Z,41.27
2018-07-19T10:47:57.623Z,41.29
2018-07-19T10:48:57.607Z,40.53
2018-07-19T10:49:57.605Z,41.02
2018-07-19T10:50:57.346Z,39.07
2018-07-19T10:51:57.398Z,39.98
2018-07-19T10:52:57.622Z,42.53
2018-07-19T10:53:57.360Z,39.86
2018-07-19T10:54:57.366Z,41.45
2018-07-19T10:55:57.631Z,38.82
2018-07-19T10:56:57.636Z,37.36
2018-07-19T10:57:57.638Z,38.07
2018-07-19T10:58:57.641Z,38.76
2018-07-19T10:59:57.383Z,37.3
2018-07-19T11:00:57.390Z,38.1
2018-07-19T11:01:57.395Z,36.53
2018-07-19T11:02:57.825Z,38.51
2018-07-19T11:03:57.684Z,37.22
2018-07-19T11:04:57.681Z,37.69
2018-07-19T11:05:57.422Z,37.99
2018-07-19T11:06:57.425Z,37.1
2018-07-19T11:07:57.689Z,38.44
2018-07-19T11:08:57.430Z,39.48
2018-07-19T11:09:57.858Z,39.84
2018-07-19T11:10:57.708Z,41.56
2018-07-19T11:11:57.710Z,42.72
2018-07-19T11:12:57.444Z,43.68
2018-07-19T11:13:57.713Z,41.15
2018-07-19T11:14:57.721Z,42.08
2018-07-19T11:15:57.722Z,40.23
2018-07-19T11:16:57.725Z,40.08
2018-07-19T11:17:57.732Z,40.47
2018-07-19T11:18:57.736Z,38.78
2018-07-19T11:19:57.476Z,39.48
2018-07-19T11:20:57.744Z,38.39
2018-07-19T11:21:57.745Z,38.5
2018-07-19T11:22:57.493Z,38.21
2018-07-19T11:23:57.775Z,39.01
2018-07-19T11:24:57.495Z,38.03
2018-07-19T11:25:57.771Z,36.88
2018-07-19T11:26:57.777Z,37.28
2018-07-19T11:27:57.774Z,37.3
2018-07-19T11:28:57.778Z,37.57
2018-07-19T11:29:57.791Z,37.55
2018-07-19T11:30:57.797Z,37.08
2018-07-19T11:31:57.532Z,36.3
2018-07-19T11:32:57.846Z,36.41
2018-07-19T11:33:57.565Z,37.3
2018-07-19T11:34:57.818Z,37.02
2018-07-19T11:35:57.818Z,38.99
2018-07-19T11:36:57.563Z,36.07
2018-07-19T11:37:57.565Z,34.69
2018-07-19T11:38:57.836Z,36.38
2018-07-19T11:39:57.841Z,35.69
2018-07-19T11:40:57.857Z,36.4
2018-07-19T11:41:57.863Z,36.6
2018-07-19T11:42:57.858Z,35.5
2018-07-19T11:43:57.871Z,36.57
2018-07-19T11:44:57.873Z,36.58
2018-07-19T11:45:57.628Z,35.12
2018-07-19T11:46:57.888Z,35.73
2018-07-19T11:47:57.887Z,35.53
2018-07-19T11:48:57.631Z,36.63
2018-07-19T11:49:58.081Z,33.98
2018-07-19T11:50:57.915Z,34.97
2018-07-19T11:51:57.924Z,33.79
2018-07-19T11:52:57.659Z,32.71
2018-07-19T11:53:57.930Z,33.8
2018-07-19T11:54:57.683Z,35.66
2018-07-19T11:55:57.683Z,34.08
2018-07-19T11:56:57.693Z,33.01
2018-07-19T11:57:57.961Z,33.11
2018-07-19T11:58:57.968Z,33.33
2018-07-19T11:59:57.976Z,33.82
2018-07-19T12:00:57.985Z,32.75
2018-07-19T12:01:57.992Z,32.17
2018-07-19T12:02:57.995Z,32.95
2018-07-19T12:03:58.006Z,32.81
2018-07-19T12:04:57.748Z,35.15
2018-07-19T12:05:58.019Z,35.73
2018-07-19T12:06:58.024Z,34.86
2018-07-19T12:07:58.033Z,32.7
2018-07-19T12:08:58.041Z,33.89
2018-07-19T12:09:57.784Z,34.28
2018-07-19T12:10:58.051Z,34.39
2018-07-19T12:11:57.795Z,33.42
2018-07-19T12:12:57.803Z,34.71
2018-07-19T12:13:58.071Z,33.24
2018-07-19T12:14:58.097Z,32.17
2018-07-19T12:15:58.088Z,32.96
2018-07-19T12:16:57.833Z,33.36
2018-07-19T12:17:57.837Z,32.09
2018-07-19T12:18:57.842Z,31.1
2018-07-19T12:19:58.117Z,32.07
2018-07-19T12:20:58.123Z,32.27
2018-07-19T12:21:58.134Z,33.16
2018-07-19T12:22:57.882Z,33.16
2018-07-19T12:23:58.148Z,33.16
2018-07-19T12:24:58.181Z,31.99
2018-07-19T12:25:58.164Z,31.2
2018-07-19T12:26:58.175Z,32.28
2018-07-19T12:27:58.180Z,32.98
2018-07-19T12:28:58.194Z,32.78
2018-07-19T12:29:58.195Z,32.88
2018-07-19T12:30:58.207Z,32.98
2018-07-19T12:31:57.951Z,32.4
2018-07-19T12:32:58.225Z,32.79
2018-07-19T12:33:57.966Z,31.71
2018-07-19T12:34:58.237Z,32
2018-07-19T12:35:57.984Z,31.9
2018-07-19T12:36:58.368Z,31.41
2018-07-19T12:37:58.267Z,32.88
2018-07-19T12:38:58.010Z,32.2
2018-07-19T12:39:58.276Z,32.4
2018-07-19T12:40:58.289Z,31.29
2018-07-19T12:41:58.295Z,31.31
2018-07-19T12:42:58.311Z,30.02
2018-07-19T12:43:58.316Z,30.91
2018-07-19T12:44:58.329Z,31.69
2018-07-19T12:45:58.330Z,31.71
2018-07-19T12:46:58.365Z,31.01
2018-07-19T12:47:58.083Z,30.81
2018-07-19T12:48:58.459Z,32.17
2018-07-19T12:49:58.098Z,32.37
2018-07-19T12:50:58.377Z,31.97
2018-07-19T12:51:58.384Z,32.28
2018-07-19T12:52:58.124Z,31.77
2018-07-19T12:53:58.394Z,31.68
2018-07-19T12:54:58.413Z,32.07